Time;durP1;ratioP1;P1;durP2;ratioP2;P2;SDS_P1;SDS_P2;PMS_P1;PMS_P2;Temp;Humidity;BMP_temperature;BMP_pressure;BME280_temperature;BME280_humidity;BME280_pressure;Samples;Min_cycle;Max_cycle;Signal;HPM_P1;HPM_P2
2022/08/01 00:01:36;;;;;;;1999.90;999.90;;;;;;;25.35;44.49;95394.03;5029157;28;20505;-66
2022/08/01 00:04:02;;;;;;;1999.90;999.90;;;;;;;25.23;44.67;95397.13;5028738;28;20079;-66
2022/08/01 00:06:27;;;;;;;1999.90;999.90;;;;;;;25.20;45.61;95391.72;5045854;28;20029;-66
2022/08/01 00:08:52;;;;;;;1999.90;999.90;;;;;;;24.78;44.89;95331.50;5029628;28;20376;-66
2022/08/01 00:11:17;;;;;;;1999.90;999.90;;;;;;;25.09;44.23;95384.34;5028432;28;20043;-66
2022/08/01 00:13:43;;;;;;;1999.90;999.90;;;;;;;24.72;44.78;95397.56;5028418;28;20682;-66
2022/08/01 00:16:08;;;;;;;1999.90;999.90;;;;;;;24.79;44.79;95379.28;5038466;28;20045;-66
2022/08/01 00:18:35;;;;;;;1999.90;999.90;;;;;;;24.81;44.77;95406.88;5027624;28;20083;-66
2022/08/01 00:21:01;;;;;;;1999.90;999.90;;;;;;;24.55;44.78;95342.00;5029165;28;20079;-66
2022/08/01 00:23:26;;;;;;;1999.90;999.90;;;;;;;24.46;45.44;95368.78;5023764;28;20459;-66
2022/08/01 00:25:52;;;;;;;1999.90;999.90;;;;;;;24.28;46.11;95395.94;5010534;28;20037;-66
2022/08/01 00:28:17;;;;;;;1999.90;999.90;;;;;;;24.38;45.58;95374.22;5009884;28;20032;-67
2022/08/01 00:30:42;;;;;;;1999.90;999.90;;;;;;;24.60;45.38;95398.72;5028828;28;20017;-67
2022/08/01 00:33:08;;;;;;;1999.90;999.90;;;;;;;24.57;45.13;95410.38;5028994;28;20121;-66
2022/08/01 00:35:33;;;;;;;1999.90;999.90;;;;;;;24.39;45.81;95391.31;5029282;28;20036;-66
2022/08/01 00:37:58;;;;;;;1999.90;999.90;;;;;;;24.49;45.35;95411.53;5029884;28;20025;-65
2022/08/01 00:40:24;;;;;;;1999.90;999.90;;;;;;;24.17;45.64;95414.94;5028671;28;20035;-65
2022/08/01 00:42:49;;;;;;;1999.90;999.90;;;;;;;23.89;46.81;95403.97;5028188;28;20108;-66
2022/08/01 00:45:14;;;;;;;1999.90;999.90;;;;;;;24.21;46.32;95413.03;5012832;28;20056;-65
2022/08/01 00:47:40;;;;;;;1999.90;999.90;;;;;;;24.07;46.67;95396.69;5042779;28;20036;-66
2022/08/01 00:50:05;;;;;;;1999.90;999.90;;;;;;;23.88;46.65;95422.22;5045077;28;20022;-66
2022/08/01 00:52:32;;;;;;;1999.90;999.90;;;;;;;23.70;46.91;95377.91;5029439;28;20025;-66
2022/08/01 00:54:57;;;;;;;1999.90;999.90;;;;;;;24.06;46.25;95406.78;5040303;28;20030;-66
2022/08/01 00:57:23;;;;;;;1999.90;999.90;;;;;;;23.70;46.97;95405.88;5029254;28;20037;-66
2022/08/01 00:59:48;;;;;;;1999.90;999.90;;;;;;;23.74;46.56;95390.34;5042692;28;20409;-66
2022/08/01 01:02:13;;;;;;;1999.90;999.90;;;;;;;23.72;46.85;95422.56;5016902;28;20026;-66
2022/08/01 01:04:39;;;;;;;1999.90;999.90;;;;;;;23.61;47.27;95389.13;5029675;28;20033;-67
2022/08/01 01:07:29;;;;;;;1999.90;999.90;;;;;;;23.85;46.73;95410.19;5016182;28;20471;-67
2022/08/01 01:10:11;;;;;;;1999.90;999.90;;;;;;;23.69;47.31;95404.28;5008467;28;20109;-66
2022/08/01 01:12:47;;;;;;;1999.90;999.90;;;;;;;23.59;47.78;95411.19;5026055;28;20034;-66
2022/08/01 01:15:36;;;;;;;1999.90;999.90;;;;;;;24.09;46.45;95418.78;5028090;28;20034;-66
2022/08/01 01:18:06;;;;;;;1999.90;999.90;;;;;;;23.65;47.45;95417.09;5008361;28;20029;-66
2022/08/01 01:20:37;;;;;;;1999.90;999.90;;;;;;;23.82;46.45;95405.53;5009519;28;20061;-66
2022/08/01 01:23:12;;;;;;;1999.90;999.90;;;;;;;23.58;47.40;95401.50;5010422;28;20045;-66
2022/08/01 01:25:37;;;;;;;1999.90;999.90;;;;;;;23.52;48.02;95422.03;5010693;28;20026;-66
2022/08/01 01:28:16;;;;;;;1999.90;999.90;;;;;;;23.75;47.01;95418.28;5028989;28;20045;-66
2022/08/01 01:30:46;;;;;;;1999.90;999.90;;;;;;;23.74;47.02;95420.22;5040421;28;20030;-66
2022/08/01 01:33:14;;;;;;;1999.90;999.90;;;;;;;23.73;46.74;95415.19;5027370;28;20030;-66
2022/08/01 01:35:46;;;;;;;1999.90;999.90;;;;;;;23.78;46.70;95421.03;5023498;28;20021;-66
2022/08/01 01:38:18;;;;;;;1999.90;999.90;;;;;;;23.38;48.25;95413.03;5009401;28;20494;-66
2022/08/01 01:40:46;;;;;;;1999.90;999.90;;;;;;;23.74;46.94;95425.66;5009505;28;20034;-66
2022/08/01 01:43:13;;;;;;;1999.90;999.90;;;;;;;23.57;47.04;95404.59;5007711;28;20026;-66
2022/08/01 01:45:40;;;;;;;1999.90;999.90;;;;;;;23.61;47.01;95408.13;5023165;28;20433;-66
2022/08/01 01:48:07;;;;;;;1999.90;999.90;;;;;;;23.54;47.03;95399.94;5009315;28;20463;-66
2022/08/01 01:50:35;;;;;;;1999.90;999.90;;;;;;;23.72;47.14;95425.28;5009344;28;20022;-66
2022/08/01 01:53:02;;;;;;;1999.90;999.90;;;;;;;23.89;46.70;95423.78;5008374;28;20022;-66
2022/08/01 01:55:29;;;;;;;1999.90;999.90;;;;;;;23.72;46.92;95413.63;5024523;28;20029;-66
2022/08/01 01:57:57;;;;;;;1999.90;999.90;;;;;;;23.84;46.56;95411.34;5026298;28;20022;-66
2022/08/01 02:00:24;;;;;;;1999.90;999.90;;;;;;;23.87;46.78;95407.09;5029942;28;20042;-66
2022/08/01 02:02:52;;;;;;;1999.90;999.90;;;;;;;24.07;45.82;95412.97;5032503;28;20029;-66
2022/08/01 02:05:18;;;;;;;1999.90;999.90;;;;;;;24.11;45.84;95411.06;5031505;28;20056;-65
2022/08/01 02:07:45;;;;;;;1999.90;999.90;;;;;;;24.06;46.23;95433.16;5032580;28;20034;-65
2022/08/01 02:10:11;;;;;;;1999.90;999.90;;;;;;;23.96;46.34;95420.31;5048048;28;20382;-66
2022/08/01 02:12:42;;;;;;;1999.90;999.90;;;;;;;24.02;45.79;95422.28;5026875;28;20076;-66
2022/08/01 02:15:09;;;;;;;1999.90;999.90;;;;;;;24.25;45.23;95408.34;5011258;28;20025;-66
2022/08/01 02:17:39;;;;;;;1999.90;999.90;;;;;;;23.74;46.72;95441.19;5031206;28;20128;-67
2022/08/01 02:20:05;;;;;;;1999.90;999.90;;;;;;;23.83;46.51;95428.81;5030939;28;20051;-67
2022/08/01 02:22:36;;;;;;;1999.90;999.90;;;;;;;23.98;45.63;95405.19;5026265;28;20026;-66
2022/08/01 02:25:31;;;;;;;1999.90;999.90;;;;;;;24.29;45.09;95433.59;5011251;28;20391;-67
2022/08/01 02:28:05;;;;;;;1999.90;999.90;;;;;;;23.39;46.52;95393.66;5012317;28;20487;-66
2022/08/01 02:30:35;;;;;;;1999.90;999.90;;;;;;;23.86;45.72;95427.28;5013185;28;20026;-65
2022/08/01 02:33:09;;;;;;;1999.90;999.90;;;;;;;23.71;45.80;95415.56;5012546;28;20052;-65
2022/08/01 02:35:38;;;;;;;1999.90;999.90;;;;;;;23.66;46.37;95426.03;5045927;28;20029;-66
2022/08/01 02:38:06;;;;;;;1999.90;999.90;;;;;;;23.84;46.00;95416.78;5031213;28;20033;-66
2022/08/01 02:40:33;;;;;;;1999.90;999.90;;;;;;;23.72;46.20;95429.94;5029856;28;20040;-66
2022/08/01 02:43:01;;;;;;;1999.90;999.90;;;;;;;23.57;46.16;95420.91;5031699;28;20041;-65
2022/08/01 02:45:27;;;;;;;1999.90;999.90;;;;;;;23.92;45.85;95414.88;5028538;28;20033;-66
2022/08/01 02:47:58;;;;;;;1999.90;999.90;;;;;;;24.07;45.38;95432.00;5031899;28;20030;-65
2022/08/01 02:50:26;;;;;;;1999.90;999.90;;;;;;;23.82;45.73;95427.25;5030526;28;20032;-66
2022/08/01 02:52:54;;;;;;;1999.90;999.90;;;;;;;23.85;45.25;95418.34;5045878;28;20457;-66
2022/08/01 02:55:22;;;;;;;1999.90;999.90;;;;;;;23.33;45.91;95379.66;5045416;28;20053;-66
2022/08/01 02:57:50;;;;;;;1999.90;999.90;;;;;;;23.85;45.25;95434.66;5031601;28;20029;-65
2022/08/01 03:00:16;;;;;;;1999.90;999.90;;;;;;;23.90;45.76;95447.06;5026848;28;20419;-66
2022/08/01 03:02:43;;;;;;;1999.90;999.90;;;;;;;23.68;46.33;95448.13;5031350;28;20041;-65
2022/08/01 03:05:11;;;;;;;1999.90;999.90;;;;;;;23.88;45.33;95437.75;5045039;28;20246;-66
2022/08/01 03:07:39;;;;;;;1999.90;999.90;;;;;;;23.90;45.58;95449.00;5031477;28;20083;-65
2022/08/01 03:10:05;;;;;;;1999.90;999.90;;;;;;;23.78;45.81;95453.63;5030206;28;20022;-65
2022/08/01 03:12:33;;;;;;;1999.90;999.90;;;;;;;23.80;46.00;95450.50;5045668;28;20120;-65
2022/08/01 03:15:00;;;;;;;1999.90;999.90;;;;;;;23.65;45.95;95440.72;5029711;28;20033;-65
2022/08/01 03:17:27;;;;;;;1999.90;999.90;;;;;;;23.85;45.89;95453.66;5029826;28;20060;-66
2022/08/01 03:19:53;;;;;;;1999.90;999.90;;;;;;;23.59;46.63;95438.34;5030189;28;20025;-65
2022/08/01 03:22:22;;;;;;;1999.90;999.90;;;;;;;23.48;46.42;95421.22;5030970;28;20060;-65
2022/08/01 03:24:51;;;;;;;1999.90;999.90;;;;;;;23.72;46.16;95447.00;5029250;28;20056;-66
2022/08/01 03:27:19;;;;;;;1999.90;999.90;;;;;;;23.80;46.13;95451.31;5030911;28;20512;-66
2022/08/01 03:29:45;;;;;;;1999.90;999.90;;;;;;;23.41;46.32;95434.00;5024020;28;20030;-66
2022/08/01 03:32:12;;;;;;;1999.90;999.90;;;;;;;23.43;46.81;95437.09;5026506;28;20125;-66
2022/08/01 03:34:37;;;;;;;1999.90;999.90;;;;;;;23.46;46.70;95449.94;5029820;28;20162;-66
2022/08/01 03:37:11;;;;;;;1999.90;999.90;;;;;;;22.90;47.87;95448.38;5031199;28;20108;-65
2022/08/01 03:39:46;;;;;;;1999.90;999.90;;;;;;;23.21;47.17;95445.13;5029592;28;20026;-65
2022/08/01 03:42:15;;;;;;;1999.90;999.90;;;;;;;23.08;47.48;95438.44;5030616;28;20025;-66
2022/08/01 03:44:41;;;;;;;1999.90;999.90;;;;;;;22.50;47.93;95388.38;5043702;28;20063;-65
2022/08/01 03:47:09;;;;;;;1999.90;999.90;;;;;;;23.04;47.81;95462.06;5043786;28;20564;-66
2022/08/01 03:49:43;;;;;;;1999.90;999.90;;;;;;;22.96;48.01;95450.38;5029438;28;20103;-66
2022/08/01 03:52:09;;;;;;;1999.90;999.90;;;;;;;22.99;48.29;95465.91;5030811;28;20060;-66
2022/08/01 03:54:40;;;;;;;1999.90;999.90;;;;;;;22.66;47.92;95428.00;5029582;28;20029;-66
2022/08/01 03:57:06;;;;;;;1999.90;999.90;;;;;;;22.30;49.54;95466.38;5030544;28;20033;-66
2022/08/01 03:59:34;;;;;;;1999.90;999.90;;;;;;;22.37;49.15;95456.75;5028450;28;20033;-65
2022/08/01 04:01:59;;;;;;;1999.90;999.90;;;;;;;22.40;48.43;95412.66;5028627;28;20477;-66
2022/08/01 04:04:25;;;;;;;1999.90;999.90;;;;;;;22.96;48.61;95482.13;5030051;28;20032;-66
2022/08/01 04:06:53;;;;;;;1999.90;999.90;;;;;;;22.06;49.21;95432.44;5027867;28;20448;-65
2022/08/01 04:09:20;;;;;;;1999.90;999.90;;;;;;;22.17;49.06;95413.63;5030149;28;20057;-66
2022/08/01 04:11:47;;;;;;;1999.90;999.90;;;;;;;22.81;47.99;95468.41;5028970;28;20056;-66
2022/08/01 04:14:12;;;;;;;1999.90;999.90;;;;;;;22.74;47.92;95435.06;5029984;28;20113;-65
2022/08/01 04:16:37;;;;;;;1999.90;999.90;;;;;;;22.70;47.70;95424.16;5023678;28;20063;-65
2022/08/01 04:19:07;;;;;;;1999.90;999.90;;;;;;;23.24;47.59;95492.44;5015777;28;20091;-65
2022/08/01 04:21:34;;;;;;;1999.90;999.90;;;;;;;22.60;48.15;95470.94;5016475;28;20053;-66
2022/08/01 04:24:04;;;;;;;1999.90;999.90;;;;;;;23.01;47.74;95495.34;5010076;28;20599;-65
2022/08/01 04:26:32;;;;;;;1999.90;999.90;;;;;;;22.78;48.02;95469.19;5024088;28;20028;-66
2022/08/01 04:29:02;;;;;;;1999.90;999.90;;;;;;;22.42;48.10;95437.44;5030005;28;20044;-69
2022/08/01 04:31:28;;;;;;;1999.90;999.90;;;;;;;22.55;48.58;95493.75;5025864;28;20029;-65
2022/08/01 04:33:55;;;;;;;1999.90;999.90;;;;;;;22.72;48.20;95492.34;5010242;28;20021;-67
2022/08/01 04:36:23;;;;;;;1999.90;999.90;;;;;;;23.17;47.00;95485.00;5019875;28;20371;-67
2022/08/01 04:38:54;;;;;;;1999.90;999.90;;;;;;;23.34;46.37;95473.53;5029725;28;20032;-70
2022/08/01 04:41:22;;;;;;;1999.90;999.90;;;;;;;23.27;46.91;95443.59;5028514;28;20036;-67
2022/08/01 04:43:47;;;;;;;1999.90;999.90;;;;;;;22.96;47.01;95446.88;5029449;28;20540;-65
2022/08/01 04:46:13;;;;;;;1999.90;999.90;;;;;;;23.65;46.43;95508.63;5028196;28;20029;-64
2022/08/01 04:48:39;;;;;;;1999.90;999.90;;;;;;;23.23;46.31;95477.31;5029543;28;20048;-67
2022/08/01 04:51:11;;;;;;;1999.90;999.90;;;;;;;23.72;46.32;95504.03;5028390;28;20120;-67
2022/08/01 04:53:37;;;;;;;1999.90;999.90;;;;;;;23.12;45.50;95384.97;5029311;28;20029;-66
2022/08/01 04:56:02;;;;;;;1999.90;999.90;;;;;;;24.18;45.19;95514.34;5028592;28;20025;-67
2022/08/01 04:58:28;;;;;;;1999.90;999.90;;;;;;;24.12;44.93;95475.88;5029601;28;20497;-66
2022/08/01 05:00:53;;;;;;;1999.90;999.90;;;;;;;23.97;45.11;95514.25;5028668;28;20036;-66
2022/08/01 05:03:19;;;;;;;1999.90;999.90;;;;;;;24.12;45.08;95472.41;5026851;28;20086;-68
2022/08/01 05:05:44;;;;;;;1999.90;999.90;;;;;;;24.15;44.73;95506.94;5012929;28;20633;-68
2022/08/01 05:08:09;;;;;;;1999.90;999.90;;;;;;;24.40;44.11;95509.00;5023481;28;21924;-67
2022/08/01 05:10:35;;;;;;;1999.90;999.90;;;;;;;24.66;43.90;95481.47;5022394;28;20068;-67
2022/08/01 05:13:00;;;;;;;1999.90;999.90;;;;;;;24.93;43.24;95511.03;5016074;28;20022;-67
2022/08/01 05:15:26;;;;;;;1999.90;999.90;;;;;;;24.93;43.18;95524.66;5041402;28;20033;-70
2022/08/01 05:17:52;;;;;;;1999.90;999.90;;;;;;;24.47;44.12;95517.97;5029187;28;20037;-69
2022/08/01 05:20:17;;;;;;;1999.90;999.90;;;;;;;24.34;44.44;95505.84;5026730;28;20029;-71
2022/08/01 05:22:43;;;;;;;1999.90;999.90;;;;;;;25.02;43.39;95523.13;5017677;28;20100;-73
2022/08/01 05:25:08;;;;;;;1999.90;999.90;;;;;;;25.15;42.96;95508.00;5024867;28;20038;-67
2022/08/01 05:27:39;;;;;;;1999.90;999.90;;;;;;;25.00;42.60;95479.19;5014168;28;20474;-69
2022/08/01 05:30:08;;;;;;;1999.90;999.90;;;;;;;25.21;42.44;95530.16;5014248;28;20029;-68
2022/08/01 05:32:33;;;;;;;1999.90;999.90;;;;;;;25.58;41.92;95520.78;5032033;28;20407;-68
2022/08/01 05:34:59;;;;;;;1999.90;999.90;;;;;;;25.12;42.43;95540.66;5018765;28;20032;-67
2022/08/01 05:37:25;;;;;;;1999.90;999.90;;;;;;;25.09;43.23;95533.28;5021371;28;20036;-66
2022/08/01 05:39:50;;;;;;;1999.90;999.90;;;;;;;25.12;42.93;95535.97;5028532;28;20062;-66
2022/08/01 05:42:15;;;;;;;1999.90;999.90;;;;;;;24.77;43.60;95530.47;5026193;28;20397;-66
2022/08/01 05:44:41;;;;;;;1999.90;999.90;;;;;;;24.34;44.34;95517.50;5048522;28;20032;-66
2022/08/01 05:47:06;;;;;;;1999.90;999.90;;;;;;;24.48;44.04;95535.84;5038318;28;20029;-66
2022/08/01 05:49:31;;;;;;;1999.90;999.90;;;;;;;24.35;44.43;95524.53;5030859;28;20032;-64
2022/08/01 05:51:57;;;;;;;1999.90;999.90;;;;;;;23.79;45.81;95542.09;5031839;28;20041;-65
2022/08/01 05:54:22;;;;;;;1999.90;999.90;;;;;;;23.60;45.72;95524.13;5031114;28;20029;-66
2022/08/01 05:56:47;;;;;;;1999.90;999.90;;;;;;;23.99;45.07;95511.94;5031574;28;20121;-67
2022/08/01 05:59:13;;;;;;;1999.90;999.90;;;;;;;23.17;46.92;95512.16;5030965;28;20116;-64
2022/08/01 06:01:38;;;;;;;1999.90;999.90;;;;;;;23.35;46.55;95512.31;5031209;28;20497;-65
2022/08/01 06:04:03;;;;;;;1999.90;999.90;;;;;;;23.51;46.61;95531.81;5030374;28;20048;-63
2022/08/01 06:06:29;;;;;;;1999.90;999.90;;;;;;;23.25;47.25;95521.91;5029726;28;20033;-62
2022/08/01 06:08:54;;;;;;;1999.90;999.90;;;;;;;23.13;47.51;95532.28;5018208;28;20026;-62
2022/08/01 06:11:19;;;;;;;1999.90;999.90;;;;;;;23.33;46.69;95531.66;5017686;28;20466;-62
2022/08/01 06:13:46;;;;;;;1999.90;999.90;;;;;;;23.07;47.07;95505.47;5047378;28;20136;-65
2022/08/01 06:16:11;;;;;;;1999.90;999.90;;;;;;;23.72;46.10;95552.13;5043354;28;20128;-65
2022/08/01 06:18:37;;;;;;;1999.90;999.90;;;;;;;23.41;46.80;95553.44;5020437;28;20092;-64
2022/08/01 06:21:03;;;;;;;1999.90;999.90;;;;;;;23.35;46.06;95545.66;5028648;28;20374;-65
2022/08/01 06:23:28;;;;;;;1999.90;999.90;;;;;;;23.19;46.75;95525.38;5031676;28;20032;-65
2022/08/01 06:25:54;;;;;;;1999.90;999.90;;;;;;;22.83;46.84;95498.69;5032084;28;20033;-65
2022/08/01 06:28:23;;;;;;;1999.90;999.90;;;;;;;23.40;46.58;95554.59;5026135;28;20065;-65
2022/08/01 06:30:48;;;;;;;1999.90;999.90;;;;;;;22.93;46.94;95488.31;5012604;28;20030;-65
2022/08/01 06:33:14;;;;;;;1999.90;999.90;;;;;;;23.65;45.60;95514.06;5012191;28;20167;-66
2022/08/01 06:35:39;;;;;;;1999.90;999.90;;;;;;;22.69;47.03;95497.75;5012564;28;20467;-65
2022/08/01 06:38:04;;;;;;;1999.90;999.90;;;;;;;23.42;45.97;95549.56;5011039;28;20022;-65
2022/08/01 06:40:30;;;;;;;1999.90;999.90;;;;;;;23.35;45.96;95528.59;5012500;28;20079;-66
2022/08/01 06:42:55;;;;;;;1999.90;999.90;;;;;;;23.32;46.67;95554.53;5012928;28;20080;-65
2022/08/01 06:45:25;;;;;;;1999.90;999.90;;;;;;;23.45;46.61;95568.63;5032151;28;20024;-66
2022/08/01 06:47:51;;;;;;;1999.90;999.90;;;;;;;23.25;46.87;95542.84;5032274;28;20033;-65
2022/08/01 06:50:17;;;;;;;1999.90;999.90;;;;;;;22.98;47.03;95521.31;5032009;28;20025;-66
2022/08/01 06:52:42;;;;;;;1999.90;999.90;;;;;;;24.42;45.00;95566.53;5031833;28;20489;-65
2022/08/01 06:55:09;;;;;;;1999.90;999.90;;;;;;;24.37;44.21;95552.13;5032153;28;20418;-65
2022/08/01 06:57:34;;;;;;;1999.90;999.90;;;;;;;23.30;45.77;95472.72;5031551;28;20485;-65
2022/08/01 07:00:11;;;;;;;1999.90;999.90;;;;;;;23.98;46.11;95570.94;5031020;28;20116;-65
2022/08/01 07:02:37;;;;;;;1999.90;999.90;;;;;;;24.35;44.66;95545.47;5031414;28;20106;-65
2022/08/01 07:05:03;;;;;;;1999.90;999.90;;;;;;;23.43;45.95;95486.75;5031970;28;20470;-65
2022/08/01 07:07:29;;;;;;;1999.90;999.90;;;;;;;23.93;45.95;95571.28;5031409;28;20033;-65
2022/08/01 07:09:55;;;;;;;1999.90;999.90;;;;;;;23.95;45.81;95522.00;5031697;28;20060;-65
2022/08/01 07:12:20;;;;;;;1999.90;999.90;;;;;;;24.27;44.81;95500.41;5031284;28;20082;-65
2022/08/01 07:14:45;;;;;;;1999.90;999.90;;;;;;;24.36;44.46;95526.09;5030652;28;20057;-65
2022/08/01 07:17:11;;;;;;;1999.90;999.90;;;;;;;24.47;44.57;95536.25;5031265;28;20389;-66
2022/08/01 07:19:36;;;;;;;1999.90;999.90;;;;;;;24.95;44.59;95561.22;5031232;28;20157;-66
2022/08/01 07:22:02;;;;;;;1999.90;999.90;;;;;;;24.88;43.70;95502.13;5031366;28;20018;-67
2022/08/01 07:24:28;;;;;;;1999.90;999.90;;;;;;;25.18;43.89;95549.22;5031297;28;20057;-67
2022/08/01 07:26:54;;;;;;;1999.90;999.90;;;;;;;25.30;43.05;95544.16;5031384;28;20029;-67
2022/08/01 07:29:26;;;;;;;1999.90;999.90;;;;;;;25.40;42.73;95554.28;5030483;28;20026;-67
2022/08/01 07:31:53;;;;;;;1999.90;999.90;;;;;;;25.05;43.57;95537.91;5031445;28;20079;-68
2022/08/01 07:34:19;;;;;;;1999.90;999.90;;;;;;;25.12;43.95;95543.38;5030876;28;20087;-66
2022/08/01 07:36:44;;;;;;;1999.90;999.90;;;;;;;24.92;44.41;95548.38;5029623;28;20417;-65
2022/08/01 07:39:09;;;;;;;1999.90;999.90;;;;;;;25.24;43.56;95534.06;5029904;28;20036;-66
2022/08/01 07:41:35;;;;;;;1999.90;999.90;;;;;;;25.40;43.64;95535.22;5029697;28;20021;-68
2022/08/01 07:44:00;;;;;;;1999.90;999.90;;;;;;;24.43;44.96;95559.91;5030018;28;20470;-65
2022/08/01 07:46:25;;;;;;;1999.90;999.90;;;;;;;24.64;44.94;95538.22;5030866;28;20718;-65
2022/08/01 07:48:51;;;;;;;1999.90;999.90;;;;;;;24.23;45.48;95532.22;5029803;28;20429;-65
2022/08/01 07:51:16;;;;;;;1999.90;999.90;;;;;;;24.95;44.97;95528.56;5030721;28;20060;-66
2022/08/01 07:53:41;;;;;;;1999.90;999.90;;;;;;;24.84;43.65;95465.97;5030542;28;20022;-65
2022/08/01 07:56:08;;;;;;;1999.90;999.90;;;;;;;25.11;44.64;95550.75;5030673;28;20071;-65
2022/08/01 07:58:33;;;;;;;1999.90;999.90;;;;;;;24.83;44.46;95513.41;5029256;28;20026;-67
2022/08/01 08:00:59;;;;;;;1999.90;999.90;;;;;;;24.76;44.64;95548.72;5030397;28;20487;-66
2022/08/01 08:03:26;;;;;;;1999.90;999.90;;;;;;;24.59;45.40;95555.69;5030124;28;20029;-65
2022/08/01 08:05:51;;;;;;;1999.90;999.90;;;;;;;24.51;45.64;95537.78;5030645;28;20048;-66
2022/08/01 08:08:17;;;;;;;1999.90;999.90;;;;;;;24.55;45.90;95538.56;5028950;28;20060;-66
2022/08/01 08:10:44;;;;;;;1999.90;999.90;;;;;;;25.40;43.95;95537.16;5030734;28;20025;-66
2022/08/01 08:13:09;;;;;;;1999.90;999.90;;;;;;;24.26;45.12;95512.41;5029559;28;20029;-65
2022/08/01 08:15:34;;;;;;;1999.90;999.90;;;;;;;24.67;45.47;95548.34;5029384;28;20750;-64
2022/08/01 08:18:00;;;;;;;1999.90;999.90;;;;;;;24.55;45.39;95541.28;5030295;28;20039;-64
2022/08/01 08:20:26;;;;;;;1999.90;999.90;;;;;;;24.93;46.06;95558.13;5029723;28;20029;-64
2022/08/01 08:22:57;;;;;;;1999.90;999.90;;;;;;;24.71;44.73;95496.66;5030070;28;20024;-66
2022/08/01 08:25:23;;;;;;;1999.90;999.90;;;;;;;24.89;44.78;95530.13;5030126;28;20052;-64
2022/08/01 08:27:49;;;;;;;1999.90;999.90;;;;;;;24.90;45.44;95531.66;5030034;28;20064;-66
2022/08/01 08:30:14;;;;;;;1999.90;999.90;;;;;;;25.06;43.90;95457.81;5029411;28;20746;-66
2022/08/01 08:32:40;;;;;;;1999.90;999.90;;;;;;;25.55;43.40;95551.56;5029616;28;20048;-65
2022/08/01 08:35:07;;;;;;;1999.90;999.90;;;;;;;25.17;44.52;95553.88;5030111;28;20098;-65
2022/08/01 08:37:33;;;;;;;1999.90;999.90;;;;;;;25.28;43.87;95524.72;5029963;28;20021;-65
2022/08/01 08:39:59;;;;;;;1999.90;999.90;;;;;;;25.39;44.43;95530.94;5028577;28;20112;-65
2022/08/01 08:42:25;;;;;;;1999.90;999.90;;;;;;;25.27;44.57;95473.38;5029732;28;20415;-65
2022/08/01 08:44:50;;;;;;;1999.90;999.90;;;;;;;26.05;43.50;95533.19;5029150;28;20033;-65
2022/08/01 08:47:18;;;;;;;1999.90;999.90;;;;;;;26.77;41.38;95506.41;5029542;28;20160;-65
2022/08/01 08:49:44;;;;;;;1999.90;999.90;;;;;;;27.07;40.99;95537.75;5029952;28;20018;-65
2022/08/01 08:52:10;;;;;;;1999.90;999.90;;;;;;;26.37;41.68;95496.84;5029416;28;20037;-65
2022/08/01 08:54:37;;;;;;;1999.90;999.90;;;;;;;27.03;41.10;95512.47;5029712;28;20026;-66
2022/08/01 08:57:04;;;;;;;1999.90;999.90;;;;;;;26.27;42.50;95544.81;5029532;28;20037;-65
2022/08/01 08:59:30;;;;;;;1999.90;999.90;;;;;;;25.37;43.30;95527.81;5028810;28;20045;-65
2022/08/01 09:01:57;;;;;;;1999.90;999.90;;;;;;;26.67;41.82;95537.25;5029737;28;20032;-65
2022/08/01 09:04:23;;;;;;;1999.90;999.90;;;;;;;25.96;41.78;95483.78;5029432;28;20029;-65
2022/08/01 09:06:49;;;;;;;1999.90;999.90;;;;;;;26.21;42.01;95524.56;5029641;28;20474;-65
2022/08/01 09:09:14;;;;;;;1999.90;999.90;;;;;;;26.12;41.54;95527.72;5028541;28;20044;-65
2022/08/01 09:11:40;;;;;;;1999.90;999.90;;;;;;;26.40;41.03;95518.63;5029649;28;20633;-64
2022/08/01 09:14:22;;;;;;;1999.90;999.90;;;;;;;26.39;41.26;95529.94;5028020;28;20018;-65
2022/08/01 09:17:03;;;;;;;1999.90;999.90;;;;;;;26.76;41.70;95532.09;5028368;28;20045;-65
2022/08/01 09:19:39;;;;;;;1999.90;999.90;;;;;;;27.10;40.55;95534.28;5043894;28;20029;-65
2022/08/01 09:22:07;;;;;;;1999.90;999.90;;;;;;;27.43;39.67;95513.69;5028702;28;20099;-64
2022/08/01 09:24:33;;;;;;;1999.90;999.90;;;;;;;27.17;39.22;95512.38;5027817;28;20029;-65
2022/08/01 09:27:00;;;;;;;1999.90;999.90;;;;;;;28.06;38.40;95516.25;5029111;28;20103;-65
2022/08/01 09:29:33;;;;;;;1999.90;999.90;;;;;;;27.90;37.57;95520.31;5028404;28;20032;-65
2022/08/01 09:32:04;;;;;;;1999.90;999.90;;;;;;;27.05;39.10;95532.72;5029553;28;20025;-65
2022/08/01 09:34:32;;;;;;;1999.90;999.90;;;;;;;27.38;38.13;95531.34;5029466;28;20037;-65
2022/08/01 09:37:00;;;;;;;1999.90;999.90;;;;;;;28.11;37.69;95527.50;5027946;28;20044;-65
2022/08/01 09:39:26;;;;;;;1999.90;999.90;;;;;;;27.74;37.80;95533.75;5029489;28;20099;-66
2022/08/01 09:41:54;;;;;;;1999.90;999.90;;;;;;;27.06;39.16;95498.00;5029387;28;20021;-64
2022/08/01 09:44:35;;;;;;;1999.90;999.90;;;;;;;26.85;39.03;95524.25;5028343;28;20029;-63
2022/08/01 09:47:01;;;;;;;;;;;;;;;27.44;38.27;95520.75;5009966;28;20068;-63
2022/08/01 09:49:32;;;;;;;1999.90;999.90;;;;;;;27.13;40.27;95517.09;5010543;28;19913;-68
2022/08/01 09:51:59;;;;;;;1999.90;999.90;;;;;;;26.62;39.63;95533.00;5010550;28;20021;-71
2022/08/01 09:54:30;;;;;;;1999.90;999.90;;;;;;;26.69;39.87;95515.78;5008847;28;20101;-68
2022/08/01 09:57:07;;;;;;;1999.90;999.90;;;;;;;27.08;39.80;95501.91;5008059;28;20487;-69
2022/08/01 09:59:40;;;;;;;1999.90;999.90;;;;;;;27.60;38.75;95509.28;5010085;28;20439;-68
2022/08/01 10:02:05;;;;;;;1999.90;999.90;;;;;;;27.57;38.22;95512.81;5027529;28;20234;-69
2022/08/01 10:04:31;;;;;;;1999.90;999.90;;;;;;;27.29;38.51;95514.63;5028943;28;20501;-69
2022/08/01 10:07:05;;;;;;;1999.90;999.90;;;;;;;27.87;38.26;95521.13;5028917;28;20045;-69
2022/08/01 10:09:33;;;;;;;1999.90;999.90;;;;;;;28.41;36.87;95526.03;5028837;28;20057;-68
2022/08/01 10:11:59;;;;;;;1999.90;999.90;;;;;;;27.67;38.08;95522.84;5028872;28;20033;-69
2022/08/01 10:14:25;;;;;;;1999.90;999.90;;;;;;;27.36;38.05;95514.56;5028620;28;20083;-69
2022/08/01 10:16:53;;;;;;;1999.90;999.90;;;;;;;27.99;37.50;95514.34;5027146;28;20044;-68
2022/08/01 10:19:21;;;;;;;1999.90;999.90;;;;;;;28.49;36.51;95492.66;5028796;28;20029;-69
2022/08/01 10:21:50;;;;;;;1999.90;999.90;;;;;;;27.98;36.30;95445.22;5032084;28;20745;-69
2022/08/01 10:24:16;;;;;;;1999.90;999.90;;;;;;;28.05;37.66;95507.28;5031029;28;20099;-69
2022/08/01 10:26:44;;;;;;;1999.90;999.90;;;;;;;28.19;36.45;95503.56;5032397;28;20026;-69
2022/08/01 10:29:10;;;;;;;1999.90;999.90;;;;;;;28.06;37.40;95513.50;5031181;28;20421;-69
2022/08/01 10:31:37;;;;;;;1999.90;999.90;;;;;;;27.91;36.62;95499.22;5030570;28;20700;-68
2022/08/01 10:34:04;;;;;;;1999.90;999.90;;;;;;;27.92;36.54;95501.53;5031937;28;20351;-69
2022/08/01 10:36:31;;;;;;;1999.90;999.90;;;;;;;27.98;37.27;95515.53;5030773;28;20064;-69
2022/08/01 10:38:57;;;;;;;1999.90;999.90;;;;;;;28.64;36.66;95497.94;5030902;28;20545;-68
2022/08/01 10:41:24;;;;;;;1999.90;999.90;;;;;;;28.29;37.31;95497.19;5032111;28;20104;-69
2022/08/01 10:43:51;;;;;;;1999.90;999.90;;;;;;;28.19;36.48;95455.13;5031617;28;20077;-69
2022/08/01 10:46:19;;;;;;;1999.90;999.90;;;;;;;28.75;35.99;95495.84;5031317;28;20033;-70
2022/08/01 10:49:02;;;;;;;1999.90;999.90;;;;;;;27.84;36.65;95491.84;5032176;28;20036;-72
2022/08/01 10:51:29;;;;;;;1999.90;999.90;;;;;;;27.81;37.42;95503.63;5030960;28;20026;-70
2022/08/01 10:53:54;;;;;;;1999.90;999.90;;;;;;;27.92;36.66;95479.66;5047519;28;20025;-73
2022/08/01 10:56:22;;;;;;;1999.90;999.90;;;;;;;29.43;37.16;95470.94;5030631;28;20532;-72